Time;durP1;ratioP1;P1;durP2;ratioP2;P2;SDS_P1;SDS_P2;PMS_P1;PMS_P2;Temp;Humidity;BMP_temperature;BMP_pressure;BME280_temperature;BME280_humidity;BME280_pressure;Samples;Min_cycle;Max_cycle;Signal;HPM_P1;HPM_P2
2022/12/01 00:00:08;;;;;;;;;;;;;;;-1.34;100.00;102259.94;5027307;28;19960;-59
2022/12/01 00:02:34;;;;;;;;;;;;;;;-1.38;100.00;102247.97;5028735;28;19932;-59
2022/12/01 00:04:59;;;;;;;;;;;;;;;-1.35;100.00;102245.22;5025828;28;20298;-60
2022/12/01 00:07:24;;;;;;;;;;;;;;;-1.37;100.00;102255.72;5021103;28;20305;-59
2022/12/01 00:12:33;;;;;;;;;;;;;;;-1.38;100.00;102255.78;5015845;28;19976;-55
2022/12/01 00:14:59;;;;;;;;;;;;;;;-1.37;100.00;102260.06;5021499;28;19925;-57
2022/12/01 00:17:26;;;;;;;;;;;;;;;-1.41;100.00;102261.97;5031168;28;19921;-60
2022/12/01 00:19:51;;;;;;;;;;;;;;;-1.41;100.00;102267.19;5024321;28;20370;-60
2022/12/01 00:22:17;;;;;;;;;;;;;;;-1.40;100.00;102258.44;5027461;28;20005;-56
2022/12/01 00:24:42;;;;;;;;;;;;;;;-1.40;100.00;102257.63;5023446;28;19960;-60
2022/12/01 00:27:07;;;;;;;;;;;;;;;-1.37;100.00;102260.06;5027669;28;19922;-60
2022/12/01 00:29:32;;;;;;;;;;;;;;;-1.30;100.00;102260.66;5021031;28;19979;-60
2022/12/01 00:31:59;;;;;;;;;;;;;;;-1.24;100.00;102266.44;5022355;28;20292;-57
2022/12/01 00:34:24;;;;;;;;;;;;;;;-1.20;100.00;102254.09;5021804;28;20537;-58
2022/12/01 00:36:50;;;;;;;;;;;;;;;-1.17;100.00;102246.97;5030768;28;20428;-58
2022/12/01 00:39:16;;;;;;;;;;;;;;;-1.14;100.00;102246.00;5024164;28;19932;-59
2022/12/01 00:41:41;;;;;;;;;;;;;;;-1.11;100.00;102240.63;5034362;28;19963;-59
2022/12/01 00:44:06;;;;;;;;;;;;;;;-1.10;100.00;102240.56;5028366;28;19929;-60
2022/12/01 00:46:31;;;;;;;;;;;;;;;-1.13;100.00;102235.53;5027436;28;19921;-60
2022/12/01 00:48:57;;;;;;;;;;;;;;;-1.11;100.00;102238.91;5029922;28;20084;-60
2022/12/01 00:51:22;;;;;;;;;;;;;;;-1.07;100.00;102236.16;5024657;28;20367;-60
2022/12/01 00:53:48;;;;;;;;;;;;;;;-1.08;100.00;102232.72;5026661;28;19929;-60
2022/12/01 00:56:13;;;;;;;;;;;;;;;-1.01;100.00;102231.47;5026946;28;19925;-60
2022/12/01 00:58:39;;;;;;;;;;;;;;;-0.94;100.00;102242.44;5024278;28;20337;-60
2022/12/01 01:01:04;;;;;;;;;;;;;;;-0.91;100.00;102237.09;5022971;28;19925;-61
2022/12/01 01:03:31;;;;;;;;;;;;;;;-0.98;100.00;102236.56;5020351;28;19979;-59
2022/12/01 01:06:02;;;;;;;;;;;;;;;-1.04;100.00;102241.19;5022972;28;20024;-60
2022/12/01 01:08:27;;;;;;;;;;;;;;;-1.03;100.00;102251.56;5024722;28;19925;-59
2022/12/01 01:10:52;;;;;;;;;;;;;;;-1.04;100.00;102251.63;5024793;28;19920;-59
2022/12/01 01:13:17;;;;;;;;;;;;;;;-1.04;100.00;102256.81;5023446;28;19925;-61
2022/12/01 01:15:43;;;;;;;;;;;;;;;-1.02;100.00;102255.00;5029405;28;19936;-60
2022/12/01 01:18:09;;;;;;;;;;;;;;;-1.02;100.00;102252.41;5020280;28;19966;-58
2022/12/01 01:20:34;;;;;;;;;;;;;;;-1.01;100.00;102249.69;5028862;28;20016;-59
2022/12/01 01:22:59;;;;;;;;;;;;;;;-0.99;100.00;102247.88;5031388;28;20401;-58
2022/12/01 01:25:24;;;;;;;;;;;;;;;-0.97;100.00;102251.25;5034069;28;19943;-61
2022/12/01 01:27:50;;;;;;;;;;;;;;;-0.99;100.00;102252.25;5031817;28;19948;-60
2022/12/01 01:30:15;;;;;;;;;;;;;;;-1.02;100.00;102257.59;5033120;28;20328;-60
2022/12/01 01:32:40;;;;;;;;;;;;;;;-1.00;100.00;102261.00;5032952;28;19936;-59
2022/12/01 01:35:06;;;;;;;;;;;;;;;-1.00;100.00;102251.41;5031127;28;20383;-60
2022/12/01 01:37:31;;;;;;;;;;;;;;;-0.97;100.00;102253.03;5032649;28;20301;-61
2022/12/01 01:39:56;;;;;;;;;;;;;;;-0.95;100.00;102259.00;5037173;28;19975;-57
2022/12/01 01:42:22;;;;;;;;;;;;;;;-0.95;100.00;102266.81;5034595;28;20380;-60
2022/12/01 01:44:54;;;;;;;;;;;;;;;-0.98;100.00;102270.41;5035370;28;19949;-60
2022/12/01 01:47:23;;;;;;;;;;;;;;;-1.05;100.00;102284.63;5025703;28;19925;-60
2022/12/01 01:49:48;;;;;;;;;;;;;;;-1.13;100.00;102282.38;5031474;28;20019;-59
2022/12/01 01:52:14;;;;;;;;;;;;;;;-1.15;100.00;102284.19;5037436;28;20401;-60
2022/12/01 01:54:43;;;;;;;;;;;;;;;-1.16;100.00;102287.72;5034442;28;19925;-60
2022/12/01 01:57:10;;;;;;;;;;;;;;;-1.19;100.00;102292.22;5026663;28;20348;-60
2022/12/01 01:59:41;;;;;;;;;;;;;;;-1.23;100.00;102290.69;5029216;28;19925;-61
2022/12/01 02:02:08;;;;;;;;;;;;;;;-1.27;100.00;102289.13;5024725;28;20442;-60
2022/12/01 02:04:34;;;;;;;;;;;;;;;-1.29;100.00;102285.75;5029531;28;19921;-61
2022/12/01 02:07:00;;;;;;;;;;;;;;;-1.25;100.00;102285.53;5031468;28;19968;-60
2022/12/01 02:09:25;;;;;;;;;;;;;;;-1.25;100.00;102284.69;5024796;28;20404;-61
2022/12/01 02:12:10;;;;;;;;;;;;;;;-1.31;100.00;102288.44;5029344;28;19929;-61
2022/12/01 02:14:54;;;;;;;;;;;;;;;-1.35;100.00;102276.47;5026958;28;20064;-57
2022/12/01 02:17:25;;;;;;;;;;;;;;;-1.37;100.00;102293.91;5033597;28;19921;-61
2022/12/01 02:20:09;;;;;;;;;;;;;;;-1.42;100.00;102282.84;5024694;28;19925;-61
2022/12/01 02:22:49;;;;;;;;;;;;;;;-1.50;100.00;102279.75;5019007;28;19928;-61
2022/12/01 02:25:26;;;;;;;;;;;;;;;-1.51;100.00;102280.69;5031622;28;19925;-58
2022/12/01 02:27:51;;;;;;;;;;;;;;;-1.55;100.00;102280.81;5021571;28;20349;-61
2022/12/01 02:30:17;;;;;;;;;;;;;;;-1.59;100.00;102278.41;5022341;28;20032;-61
2022/12/01 02:32:57;;;;;;;;;;;;;;;-1.63;100.00;102282.06;5026070;28;19921;-61
2022/12/01 02:35:25;;;;;;;;;;;;;;;-1.68;100.00;102273.63;5031324;28;19944;-61
2022/12/01 02:38:05;;;;;;;;;;;;;;;-1.70;100.00;102284.09;5027301;28;19964;-61
2022/12/01 02:40:35;;;;;;;;;;;;;;;-1.69;100.00;102277.97;5029461;28;19925;-60
2022/12/01 02:43:02;;;;;;;;;;;;;;;-1.73;100.00;102270.38;5020059;28;20338;-61
2022/12/01 02:45:32;;;;;;;;;;;;;;;-1.75;100.00;102265.25;5028244;28;20383;-60
2022/12/01 02:47:59;;;;;;;;;;;;;;;-1.72;100.00;102261.69;5028346;28;19960;-62
2022/12/01 02:50:27;;;;;;;;;;;;;;;-1.77;100.00;102259.28;5024949;28;19932;-60
2022/12/01 02:52:53;;;;;;;;;;;;;;;-1.76;100.00;102254.00;5027462;28;21215;-61
2022/12/01 02:55:18;;;;;;;;;;;;;;;-1.76;100.00;102256.63;5021733;28;20286;-62
2022/12/01 02:57:43;;;;;;;;;;;;;;;-1.79;100.00;102253.28;5030603;28;19917;-61
2022/12/01 03:00:12;;;;;;;;;;;;;;;-1.80;100.00;102243.81;5027735;28;19929;-62
2022/12/01 03:02:41;;;;;;;;;;;;;;;-1.86;100.00;102234.53;5020318;28;19929;-62
2022/12/01 03:05:06;;;;;;;;;;;;;;;-1.85;100.00;102231.00;5025755;28;20327;-61
2022/12/01 03:07:38;;;;;;;;;;;;;;;-1.85;100.00;102222.38;5024793;28;19921;-63
2022/12/01 03:10:23;;;;;;;;;;;;;;;-1.93;100.00;102230.50;5021323;28;19930;-63
2022/12/01 03:13:14;;;;;;;;;;;;;;;-1.99;100.00;102233.34;5040661;28;20000;-63
2022/12/01 03:15:58;;;;;;;;;;;;;;;-2.04;100.00;102238.78;5021935;28;19925;-63
2022/12/01 03:18:23;;;;;;;;;;;;;;;-2.03;100.00;102240.44;5021129;28;20024;-63
2022/12/01 03:20:55;;;;;;;;;;;;;;;-2.06;100.00;102242.34;5017891;28;20058;-62
2022/12/01 03:23:22;;;;;;;;;;;;;;;-2.09;100.00;102248.53;5030299;28;19941;-63
2022/12/01 03:25:50;;;;;;;;;;;;;;;-2.09;100.00;102245.94;5022482;28;20294;-63
2022/12/01 03:28:17;;;;;;;;;;;;;;;-2.08;100.00;102241.56;5024337;28;19929;-62
2022/12/01 03:30:45;;;;;;;;;;;;;;;-2.04;100.00;102248.31;5020140;28;19929;-63
2022/12/01 03:33:17;;;;;;;;;;;;;;;-2.00;100.00;102253.31;5024137;28;19925;-63
2022/12/01 03:35:49;;;;;;;;;;;;;;;-1.98;100.00;102253.25;5021939;28;19929;-63
2022/12/01 03:38:20;;;;;;;;;;;;;;;-1.94;100.00;102256.56;5013366;28;19933;-62
2022/12/01 03:40:48;;;;;;;;;;;;;;;-1.90;100.00;102268.53;5015711;28;19925;-63
2022/12/01 03:43:17;;;;;;;;;;;;;;;-1.88;100.00;102267.56;5028767;28;19921;-63
2022/12/01 03:45:42;;;;;;;;;;;;;;;-1.80;100.00;102267.22;5023698;28;19932;-63
2022/12/01 03:48:07;;;;;;;;;;;;;;;-1.72;100.00;102272.09;5030596;28;20366;-62
2022/12/01 03:50:44;;;;;;;;;;;;;;;-1.63;100.00;102271.66;5029101;28;19921;-62
2022/12/01 03:53:18;;;;;;;;;;;;;;;-1.58;100.00;102280.94;5026579;28;19932;-63
2022/12/01 03:55:46;;;;;;;;;;;;;;;-1.63;100.00;102279.47;5027121;28;19971;-63
2022/12/01 03:58:11;;;;;;;;;;;;;;;-1.61;100.00;102275.88;5026114;28;20271;-62
2022/12/01 04:00:36;;;;;;;;;;;;;;;-1.59;100.00;102283.63;5026413;28;19932;-63
2022/12/01 04:03:02;;;;;;;;;;;;;;;-1.63;100.00;102285.50;5014943;28;19925;-62
2022/12/01 04:05:28;;;;;;;;;;;;;;;-1.66;100.00;102287.41;5027103;28;19921;-63
2022/12/01 04:07:54;;;;;;;;;;;;;;;-1.68;100.00;102289.22;5024128;28;19925;-63
2022/12/01 04:10:19;;;;;;;;;;;;;;;-1.66;100.00;102290.84;5019489;28;19932;-63
2022/12/01 04:12:44;;;;;;;;;;;;;;;-1.69;100.00;102290.97;5023697;28;19925;-61
2022/12/01 04:15:11;;;;;;;;;;;;;;;-1.65;100.00;102291.69;5017628;28;19936;-62
2022/12/01 04:17:37;;;;;;;;;;;;;;;-1.62;100.00;102295.00;5027711;28;19948;-62
2022/12/01 04:20:03;;;;;;;;;;;;;;;-1.59;100.00;102292.25;5029116;28;20418;-62
2022/12/01 04:22:28;;;;;;;;;;;;;;;-1.58;100.00;102291.34;5024565;28;19925;-63
2022/12/01 04:24:53;;;;;;;;;;;;;;;-1.52;100.00;102297.19;5023922;28;19988;-62
2022/12/01 04:27:19;;;;;;;;;;;;;;;-1.47;100.00;102305.63;5028929;28;19928;-63
2022/12/01 04:29:44;;;;;;;;;;;;;;;-1.48;100.00;102307.41;5023492;28;19928;-62
2022/12/01 04:32:09;;;;;;;;;;;;;;;-1.49;100.00;102308.31;5023197;28;19925;-63
2022/12/01 04:34:35;;;;;;;;;;;;;;;-1.54;100.00;102308.53;5028157;28;19925;-63
2022/12/01 04:37:01;;;;;;;;;;;;;;;-1.51;100.00;102306.69;5025297;28;19931;-63
2022/12/01 04:39:27;;;;;;;;;;;;;;;-1.50;100.00;102313.59;5027498;28;19948;-62
2022/12/01 04:41:52;;;;;;;;;;;;;;;-1.49;100.00;102308.31;5028316;28;20380;-61
2022/12/01 04:44:17;;;;;;;;;;;;;;;-1.49;100.00;102315.28;5025332;28;19948;-61
2022/12/01 04:46:42;;;;;;;;;;;;;;;-1.52;100.00;102316.28;5020787;28;20486;-61
2022/12/01 04:49:08;;;;;;;;;;;;;;;-1.56;100.00;102312.09;5026674;28;19921;-62
2022/12/01 04:51:33;;;;;;;;;;;;;;;-1.59;100.00;102317.44;5022952;28;20047;-62
2022/12/01 04:53:59;;;;;;;;;;;;;;;-1.72;100.00;102314.53;5029936;28;19921;-61
2022/12/01 04:56:25;;;;;;;;;;;;;;;-1.73;100.00;102312.81;5015561;28;19929;-62
2022/12/01 04:58:50;;;;;;;;;;;;;;;-1.76;100.00;102311.22;5030507;28;19921;-61
2022/12/01 05:01:16;;;;;;;;;;;;;;;-1.77;100.00;102306.09;5026423;28;19925;-63
2022/12/01 05:03:42;;;;;;;;;;;;;;;-1.78;100.00;102307.00;5033122;28;20337;-62
2022/12/01 05:06:12;;;;;;;;;;;;;;;-1.75;100.00;102312.06;5030787;28;19944;-62
2022/12/01 05:08:38;;;;;;;;;;;;;;;-1.73;100.00;102307.63;5033424;28;20249;-61
2022/12/01 05:11:04;;;;;;;;;;;;;;;-1.69;100.00;102306.59;5027128;28;19932;-61
2022/12/01 05:13:29;;;;;;;;;;;;;;;-1.65;100.00;102312.50;5029325;28;19921;-62
2022/12/01 05:16:04;;;;;;;;;;;;;;;-1.60;100.00;102311.41;5029539;28;20386;-62
2022/12/01 05:18:29;;;;;;;;;;;;;;;-1.50;100.00;102313.59;5026641;28;19968;-60
2022/12/01 05:20:57;;;;;;;;;;;;;;;-1.55;100.00;102319.84;5021706;28;19925;-64
2022/12/01 05:23:24;;;;;;;;;;;;;;;-1.55;100.00;102316.38;5023278;28;19921;-62
2022/12/01 05:25:49;;;;;;;;;;;;;;;-1.55;100.00;102321.59;5021351;28;20329;-62
2022/12/01 05:28:14;;;;;;;;;;;;;;;-1.60;100.00;102328.75;5019715;28;19921;-61
2022/12/01 05:30:40;;;;;;;;;;;;;;;-1.65;100.00;102323.75;5021482;28;20007;-61
2022/12/01 05:33:05;;;;;;;;;;;;;;;-1.67;100.00;102320.38;5025433;28;19943;-61
2022/12/01 05:35:31;;;;;;;;;;;;;;;-1.67;100.00;102333.38;5023792;28;19921;-61
2022/12/01 05:37:57;;;;;;;;;;;;;;;-1.66;100.00;102337.66;5027356;28;20260;-61
2022/12/01 05:40:22;;;;;;;;;;;;;;;-1.64;100.00;102333.25;5022233;28;19936;-62
2022/12/01 05:42:47;;;;;;;;;;;;;;;-1.65;100.00;102335.91;5026415;28;20359;-62
2022/12/01 05:45:12;;;;;;;;;;;;;;;-1.67;100.00;102337.75;5027051;28;19957;-60
2022/12/01 05:47:38;;;;;;;;;;;;;;;-1.68;100.00;102336.88;5029339;28;19967;-61
2022/12/01 05:50:03;;;;;;;;;;;;;;;-1.68;100.00;102339.47;5031254;28;19925;-62
2022/12/01 05:52:28;;;;;;;;;;;;;;;-1.67;100.00;102343.78;5022453;28;20383;-62
2022/12/01 05:54:53;;;;;;;;;;;;;;;-1.70;100.00;102343.06;5026484;28;19972;-61
2022/12/01 05:57:19;;;;;;;;;;;;;;;-1.70;100.00;102337.84;5030681;28;19971;-61
2022/12/01 05:59:44;;;;;;;;;;;;;;;-1.70;100.00;102338.72;5027904;28;19921;-62
2022/12/01 06:02:09;;;;;;;;;;;;;;;-1.71;100.00;102337.00;5027463;28;19925;-61
2022/12/01 06:04:34;;;;;;;;;;;;;;;-1.78;100.00;102338.22;5031034;28;19921;-62
2022/12/01 06:06:59;;;;;;;;;;;;;;;-1.76;100.00;102334.63;5029131;28;19928;-61
2022/12/01 06:09:25;;;;;;;;;;;;;;;-1.65;100.00;102335.91;5026052;28;19921;-61
2022/12/01 06:11:50;;;;;;;;;;;;;;;-1.59;100.00;102333.06;5025349;28;20372;-62
2022/12/01 06:14:15;;;;;;;;;;;;;;;-1.61;100.00;102333.09;5024998;28;19932;-62
2022/12/01 06:16:40;;;;;;;;;;;;;;;-1.63;100.00;102329.72;5025406;28;19931;-62
2022/12/01 06:19:06;;;;;;;;;;;;;;;-1.63;100.00;102323.69;5025757;28;20366;-62
2022/12/01 06:21:31;;;;;;;;;;;;;;;-1.66;100.00;102331.63;5020166;28;19951;-62
2022/12/01 06:23:56;;;;;;;;;;;;;;;-1.71;100.00;102331.81;5028127;28;19922;-61
2022/12/01 06:26:21;;;;;;;;;;;;;;;-1.71;100.00;102320.56;5022401;28;19928;-61
2022/12/01 06:28:47;;;;;;;;;;;;;;;-1.78;100.00;102330.41;5030403;28;19924;-61
2022/12/01 06:31:12;;;;;;;;;;;;;;;-1.84;100.00;102325.44;5032774;28;19921;-62
2022/12/01 06:33:37;;;;;;;;;;;;;;;-1.88;100.00;102323.91;5028595;28;19925;-61
2022/12/01 06:36:05;;;;;;;;;;;;;;;-1.90;100.00;102320.53;5029198;28;20020;-61
2022/12/01 06:38:31;;;;;;;;;;;;;;;-1.93;100.00;102325.88;5023284;28;19928;-62
2022/12/01 06:40:57;;;;;;;;;;;;;;;-1.97;100.00;102319.94;5024538;28;19925;-63
2022/12/01 06:43:22;;;;;;;;;;;;;;;-2.04;100.00;102326.28;5029939;28;19921;-61
2022/12/01 06:45:47;;;;;;;;;;;;;;;-2.04;100.00;102328.88;5032050;28;19972;-61
2022/12/01 06:48:13;;;;;;;;;;;;;;;-2.14;100.00;102328.44;5028378;28;19947;-63
2022/12/01 06:50:38;;;;;;;;;;;;;;;-2.15;100.00;102333.69;5025208;28;20016;-60
2022/12/01 06:53:03;;;;;;;;;;;;;;;-2.11;100.00;102328.31;5028556;28;19925;-62
2022/12/01 06:55:28;;;;;;;;;;;;;;;-2.10;100.00;102334.34;5025879;28;19929;-60
2022/12/01 06:57:54;;;;;;;;;;;;;;;-2.10;100.00;102339.56;5028322;28;20099;-62
2022/12/01 07:00:19;;;;;;;;;;;;;;;-2.09;100.00;102342.09;5036159;28;19925;-63
2022/12/01 07:02:44;;;;;;;;;;;;;;;-2.10;100.00;102340.38;5028355;28;20378;-61
2022/12/01 07:05:09;;;;;;;;;;;;;;;-2.05;100.00;102343.66;5026241;28;19929;-61
2022/12/01 07:07:36;;;;;;;;;;;;;;;-1.98;100.00;102344.25;5028960;28;19924;-61
2022/12/01 07:10:01;;;;;;;;;;;;;;;-1.94;100.00;102348.41;5022960;28;20024;-62
2022/12/01 07:12:28;;;;;;;;;;;;;;;-1.90;100.00;102355.16;5026124;28;20020;-62
2022/12/01 07:14:54;;;;;;;;;;;;;;;-1.87;100.00;102362.00;5026973;28;19921;-62
2022/12/01 07:17:19;;;;;;;;;;;;;;;-1.82;100.00;102355.69;5022182;28;19925;-62
2022/12/01 07:19:44;;;;;;;;;;;;;;;-1.77;100.00;102358.09;5026174;28;20378;-61
2022/12/01 07:22:09;;;;;;;;;;;;;;;-1.71;100.00;102357.81;5022941;28;20011;-63
2022/12/01 07:24:35;;;;;;;;;;;;;;;-1.72;100.00;102360.50;5025514;28;20021;-61
2022/12/01 07:27:00;;;;;;;;;;;;;;;-1.65;100.00;102357.59;5016647;28;20023;-61
2022/12/01 07:29:25;;;;;;;;;;;;;;;-1.56;100.00;102362.38;5010420;28;20328;-62
2022/12/01 07:31:50;;;;;;;;;;;;;;;-1.44;100.00;102362.75;5014744;28;19921;-62
2022/12/01 07:34:16;;;;;;;;;;;;;;;-1.42;100.00;102366.13;5021720;28;20512;-61
2022/12/01 07:36:41;;;;;;;;;;;;;;;-1.36;100.00;102368.47;5019348;28;20473;-62
2022/12/01 07:39:07;;;;;;;;;;;;;;;-1.30;100.00;102378.59;5021633;28;19925;-62
2022/12/01 07:41:32;;;;;;;;;;;;;;;-1.24;100.00;102370.53;5023983;28;20000;-60
2022/12/01 07:43:58;;;;;;;;;;;;;;;-1.21;100.00;102383.41;5025519;28;19925;-61
2022/12/01 07:46:24;;;;;;;;;;;;;;;-1.20;100.00;102385.09;5024917;28;19925;-64
2022/12/01 07:48:50;;;;;;;;;;;;;;;-1.18;100.00;102390.25;5021039;28;20315;-62
2022/12/01 07:51:16;;;;;;;;;;;;;;;-1.16;100.00;102391.00;5028335;28;20024;-63
2022/12/01 07:53:41;;;;;;;;;;;;;;;-1.17;100.00;102392.75;5029331;28;20023;-60
2022/12/01 07:56:07;;;;;;;;;;;;;;;-1.13;100.00;102396.09;5020282;28;20012;-63
2022/12/01 07:58:32;;;;;;;;;;;;;;;-1.11;100.00;102395.09;5022053;28;20413;-62
2022/12/01 08:00:58;;;;;;;;;;;;;;;-0.97;100.00;102396.25;5019640;28;20664;-62
2022/12/01 08:03:23;;;;;;;;;;;;;;;-1.04;100.00;102389.63;5025627;28;19925;-62
2022/12/01 08:05:56;;;;;;;;;;;;;;;-0.99;100.00;102398.91;5029749;28;19969;-61
2022/12/01 08:08:21;;;;;;;;;;;;;;;-0.88;100.00;102395.81;5023934;28;19960;-61
2022/12/01 08:10:46;;;;;;;;;;;;;;;-0.92;100.00;102396.88;5020962;28;20409;-61
2022/12/01 08:13:11;;;;;;;;;;;;;;;-0.85;100.00;102400.03;5024327;28;19957;-62
2022/12/01 08:15:36;;;;;;;;;;;;;;;-0.76;100.00;102400.47;5024793;28;19972;-63
2022/12/01 08:18:02;;;;;;;;;;;;;;;-0.73;100.00;102402.91;5027276;28;20023;-62
2022/12/01 08:20:27;;;;;;;;;;;;;;;-0.84;100.00;102394.78;5019313;28;19925;-62
2022/12/01 08:22:52;;;;;;;;;;;;;;;-0.84;100.00;102402.59;5026158;28;19969;-60
2022/12/01 08:25:18;;;;;;;;;;;;;;;-0.82;100.00;102408.56;5025583;28;19964;-63
2022/12/01 08:27:43;;;;;;;;;;;;;;;-0.80;100.00;102413.69;5025558;28;19998;-62
2022/12/01 08:30:08;;;;;;;;;;;;;;;-0.72;100.00;102411.59;5017028;28;19986;-63
2022/12/01 08:32:33;;;;;;;;;;;;;;;-0.73;100.00;102422.91;5024120;28;20012;-62
2022/12/01 08:34:59;;;;;;;;;;;;;;;-0.71;100.00;102419.34;5026035;28;19924;-62
2022/12/01 08:37:24;;;;;;;;;;;;;;;-0.64;100.00;102416.47;5025099;28;19921;-62
2022/12/01 08:39:49;;;;;;;;;;;;;;;-0.55;100.00;102423.84;5029469;28;19952;-60
2022/12/01 08:42:14;;;;;;;;;;;;;;;-0.53;100.00;102428.06;5027099;28;20019;-61
2022/12/01 08:44:40;;;;;;;;;;;;;;;-0.49;100.00;102420.94;5025763;28;19917;-62
2022/12/01 08:47:05;;;;;;;;;;;;;;;-0.43;100.00;102422.44;5023414;28;19928;-63
2022/12/01 08:49:30;;;;;;;;;;;;;;;-0.36;100.00;102423.81;5023198;28;20008;-60
2022/12/01 08:51:56;;;;;;;;;;;;;;;-0.32;100.00;102430.59;5031048;28;19921;-59
2022/12/01 08:54:21;;;;;;;;;;;;;;;-0.31;100.00;102427.91;5025493;28;19923;-62
2022/12/01 08:56:47;;;;;;;;;;;;;;;-0.27;100.00;102434.66;5026093;28;20289;-60
2022/12/01 08:59:12;;;;;;;;;;;;;;;-0.27;100.00;102429.44;5030606;28;19964;-60
2022/12/01 09:01:50;;;;;;;;;;;;;;;-0.23;100.00;102419.72;5020482;28;19921;-62
2022/12/01 09:04:15;;;;;;;;;;;;;;;-0.17;100.00;102423.78;5029519;28;19924;-61
2022/12/01 09:06:41;;;;;;;;;;;;;;;-0.13;100.00;102434.00;5029042;28;19991;-61
2022/12/01 09:09:09;;;;;;;;;;;;;;;-0.10;100.00;102418.22;5029541;28;19940;-60
2022/12/01 09:11:35;;;;;;;;;;;;;;;-0.14;100.00;102426.25;5032210;28;19968;-60
2022/12/01 09:14:00;;;;;;;;;;;;;;;-0.15;100.00;102421.97;5023955;28;19925;-59
2022/12/01 09:16:25;;;;;;;;;;;;;;;-0.14;100.00;102421.03;5023241;28;19921;-60
2022/12/01 09:18:50;;;;;;;;;;;;;;;-0.09;100.00;102426.88;5021558;28;19975;-59
2022/12/01 09:21:16;;;;;;;;;;;;;;;-0.07;100.00;102430.25;5022973;28;19921;-62
2022/12/01 09:23:41;;;;;;;;;;;;;;;-0.08;100.00;102431.16;5022275;28;19968;-61
2022/12/01 09:26:07;;;;;;;;;;;;;;;-0.09;100.00;102439.91;5022991;28;19970;-59
2022/12/01 09:28:32;;;;;;;;;;;;;;;-0.12;100.00;102437.47;5019909;28;20370;-59
2022/12/01 09:31:07;;;;;;;;;;;;;;;-0.11;100.00;102441.75;5022729;28;19921;-60
2022/12/01 09:33:32;;;;;;;;;;;;;;;-0.09;100.00;102439.91;5032238;28;19922;-60
2022/12/01 09:35:58;;;;;;;;;;;;;;;-0.07;100.00;102438.94;5025175;28;19928;-58
2022/12/01 09:38:24;;;;;;;;;;;;;;;-0.03;100.00;102455.25;5023976;28;19933;-60
2022/12/01 09:40:50;;;;;;;;;;;;;;;-0.01;100.00;102456.88;5029253;28;19925;-59
2022/12/01 09:43:18;;;;;;;;;;;;;;;0.06;100.00;102462.66;5022518;28;19921;-58
2022/12/01 09:45:49;;;;;;;;;;;;;;;0.16;100.00;102461.28;5030754;28;19975;-57
2022/12/01 09:48:41;;;;;;;;;;;;;;;0.28;100.00;102453.75;5033144;28;19921;-60
2022/12/01 09:51:11;;;;;;;;;;;;;;;0.42;100.00;102453.94;5024784;28;19965;-58
2022/12/01 09:53:37;;;;;;;;;;;;;;;0.55;100.00;102454.16;5025794;28;19921;-58
2022/12/01 09:56:03;;;;;;;;;;;;;;;0.75;100.00;102461.81;5019417;28;19921;-57
2022/12/01 09:58:29;;;;;;;;;;;;;;;0.82;100.00;102459.72;5021336;28;19975;-58
2022/12/01 10:00:56;;;;;;;;;;;;;;;0.88;100.00;102462.03;5024859;28;20390;-55
2022/12/01 10:03:30;;;;;;;;;;;;;;;0.98;100.00;102458.03;5028643;28;20023;-59
2022/12/01 10:06:03;;;;;;;;;;;;;;;1.15;100.00;102458.91;5033537;28;19980;-56
2022/12/01 10:08:30;;;;;;;;;;;;;;;1.31;100.00;102462.38;5027378;28;20401;-54
2022/12/01 10:10:59;;;;;;;;;;;;;;;1.31;100.00;102459.75;5028816;28;19929;-56
2022/12/01 10:13:26;;;;;;;;;;;;;;;1.36;100.00;102460.34;5029880;28;19944;-56
2022/12/01 10:15:51;;;;;;;;;;;;;;;1.48;100.00;102469.31;5024643;28;19925;-56
2022/12/01 10:18:22;;;;;;;;;;;;;;;1.62;100.00;102464.16;5029560;28;19921;-57
2022/12/01 10:20:52;;;;;;;;;;;;;;;1.68;100.00;102461.22;5024261;28;19921;-59
2022/12/01 10:23:20;;;;;;;;;;;;;;;1.75;100.00;102464.31;5025303;28;20302;-57
2022/12/01 10:25:56;;;;;;;;;;;;;;;1.86;100.00;102461.97;5028681;28;19951;-60
2022/12/01 10:28:28;;;;;;;;;;;;;;;2.07;100.00;102461.69;5032090;28;20381;-58
2022/12/01 10:30:56;;;;;;;;;;;;;;;2.23;100.00;102462.50;5027621;28;19925;-58
2022/12/01 10:33:23;;;;;;;;;;;;;;;2.36;100.00;102465.25;5031456;28;19956;-57
2022/12/01 10:35:49;;;;;;;;;;;;;;;2.45;100.00;102445.53;5022041;28;19967;-59
2022/12/01 10:38:23;;;;;;;;;;;;;;;2.55;100.00;102454.53;5027755;28;19952;-55
2022/12/01 10:40:49;;;;;;;;;;;;;;;2.65;100.00;102447.81;5033519;28;20020;-54
2022/12/01 10:43:14;;;;;;;;;;;;;;;2.73;100.00;102449.97;5021773;28;19922;-55
2022/12/01 10:45:42;;;;;;;;;;;;;;;2.86;100.00;102445.69;5021240;28;19921;-56
2022/12/01 10:48:14;;;;;;;;;;;;;;;2.98;100.00;102441.50;5026323;28;19932;-59
2022/12/01 10:50:50;;;;;;;;;;;;;;;3.11;100.00;102438.97;5031075;28;19917;-55
2022/12/01 10:53:35;;;;;;;;;;;;;;;3.26;100.00;102428.38;5021467;28;19959;-59
2022/12/01 10:56:20;;;;;;;;;;;;;;;3.38;100.00;102425.91;5022468;28;20389;-59
2022/12/01 10:58:49;;;;;;;;;;;;;;;3.42;100.00;102420.38;5026038;28;19928;-57
2022/12/01 11:01:16;;;;;;;;;;;;;;;3.41;100.00;102413.47;5023455;28;19929;-60
2022/12/01 11:03:42;;;;;;;;;;;;;;;3.38;100.00;102416.28;5028539;28;20271;-58
2022/12/01 11:06:09;;;;;;;;;;;;;;;3.38;100.00;102415.41;5021420;28;19922;-58
2022/12/01 11:08:44;;;;;;;;;;;;;;;3.35;100.00;102407.75;5022973;28;19921;-58
2022/12/01 11:11:24;;;;;;;;;;;;;;;3.44;100.00;102407.19;5032177;28;20301;-58
2022/12/01 11:13:49;;;;;;;;;;;;;;;3.43;100.00;102401.09;5020366;28;19922;-56
2022/12/01 11:16:33;;;;;;;;;;;;;;;3.50;100.00;102391.88;5029508;28;19936;-60
2022/12/01 11:19:17;;;;;;;;;;;;;;;3.57;100.00;102389.72;5032145;28;20294;-58
2022/12/01 11:22:05;;;;;;;;;;;;;;;3.77;100.00;102392.81;5030552;28;19928;-60
2022/12/01 11:24:42;;;;;;;;;;;;;;;3.98;100.00;102382.72;5027339;28;19921;-58
2022/12/01 11:27:13;;;;;;;;;;;;;;;4.20;100.00;102379.50;5023240;28;20271;-60
2022/12/01 11:29:39;;;;;;;;;;;;;;;4.39;100.00;102377.31;5028196;28;20004;-58
2022/12/01 11:32:16;;;;;;;;;;;;;;;4.53;100.00;102374.56;5026478;28;20008;-56
2022/12/01 11:34:46;;;;;;;;;;;;;;;4.80;100.00;102378.84;5020262;28;19945;-57
2022/12/01 11:37:16;;;;;;;;;;;;;;;5.00;100.00;102380.94;5024534;28;19952;-59
2022/12/01 11:39:42;;;;;;;;;;;;;;;5.01;100.00;102371.28;5021519;28;19922;-59
2022/12/01 11:42:10;;;;;;;;;;;;;;;5.15;100.00;102373.75;5021191;28;19932;-59
2022/12/01 11:44:36;;;;;;;;;;;;;;;5.31;100.00;102370.03;5028150;28;20297;-55
2022/12/01 11:47:18;;;;;;;;;;;;;;;5.40;100.00;102362.31;5026027;28;20009;-57
2022/12/01 11:49:45;;;;;;;;;;;;;;;5.54;100.00;102360.47;5027748;28;19921;-59
2022/12/01 11:52:21;;;;;;;;;;;;;;;5.62;100.00;102360.75;5028084;28;19929;-59
2022/12/01 11:54:57;;;;;;;;;;;;;;;5.76;100.00;102354.47;5014925;28;19929;-59
2022/12/01 11:57:23;;;;;;;;;;;;;;;5.82;100.00;102352.22;5015362;28;20095;-60
2022/12/01 11:59:48;;;;;;;;;;;;;;;5.94;100.00;102349.66;5022324;28;20371;-58
2022/12/01 12:02:42;;;;;;;;;;;;;;;5.99;100.00;102355.41;5021113;28;20302;-56
2022/12/01 12:05:16;;;;;;;;;;;;;;;6.00;100.00;102346.56;5021210;28;19929;-57
2022/12/01 12:07:41;;;;;;;;;;;;;;;6.05;100.00;102347.91;5021670;28;19921;-58
2022/12/01 12:10:25;;;;;;;;;;;;;;;6.14;100.00;102340.25;5024969;28;20103;-59
2022/12/01 12:13:13;;;;;;;;;;;;;;;6.18;100.00;102336.44;5024284;28;20290;-58
2022/12/01 12:15:38;;;;;;;;;;;;;;;6.37;100.00;102328.78;5023347;28;20290;-54
2022/12/01 12:18:21;;;;;;;;;;;;;;;6.49;100.00;102324.38;5026264;28;19925;-59
2022/12/01 12:20:46;;;;;;;;;;;;;;;6.55;100.00;102319.44;5026575;28;19921;-58
2022/12/01 12:23:12;;;;;;;;;;;;;;;6.59;100.00;102321.88;5020349;28;19930;-59
2022/12/01 12:25:55;;;;;;;;;;;;;;;6.64;100.00;102312.63;5027371;28;19921;-58
2022/12/01 12:28:33;;;;;;;;;;;;;;;6.68;100.00;102302.69;5028109;28;20394;-57
2022/12/01 12:31:10;;;;;;;;;;;;;;;6.76;100.00;102306.41;5026899;28;19948;-57
2022/12/01 12:33:50;;;;;;;;;;;;;;;6.81;100.00;102303.38;5024424;28;20315;-57